sensor_id;sensor_type;location;lat;lon;timestamp;P1;durP1;ratioP1;P2;durP2;ratioP2
78750;SDS011;68070;50.954;11.060;2024-01-15T00:04:26;14.00;;;7.10;;
78750;SDS011;68070;50.954;11.060;2024-01-15T00:06:51;14.40;;;7.50;;
78750;SDS011;68070;50.954;11.060;2024-01-15T00:09:16;15.30;;;7.50;;
78750;SDS011;68070;50.954;11.060;2024-01-15T00:11:42;14.40;;;7.60;;
78750;SDS011;68070;50.954;11.060;2024-01-15T00:14:07;13.90;;;7.40;;
78750;SDS011;68070;50.954;11.060;2024-01-15T00:16:32;14.90;;;7.40;;
78750;SDS011;68070;50.954;11.060;2024-01-15T00:18:57;12.20;;;7.00;;
78750;SDS011;68070;50.954;11.060;2024-01-15T00:21:22;13.50;;;8.00;;
78750;SDS011;68070;50.954;11.060;2024-01-15T00:26:13;13.30;;;7.10;;
78750;SDS011;68070;50.954;11.060;2024-01-15T00:28:38;13.70;;;7.50;;
78750;SDS011;68070;50.954;11.060;2024-01-15T00:31:04;14.70;;;7.70;;
78750;SDS011;68070;50.954;11.060;2024-01-15T00:33:29;16.80;;;8.60;;
78750;SDS011;68070;50.954;11.060;2024-01-15T00:35:54;12.70;;;7.60;;
78750;SDS011;68070;50.954;11.060;2024-01-15T00:38:20;16.10;;;7.80;;
78750;SDS011;68070;50.954;11.060;2024-01-15T00:40:45;15.90;;;7.70;;
78750;SDS011;68070;50.954;11.060;2024-01-15T00:43:10;15.10;;;7.00;;
78750;SDS011;68070;50.954;11.060;2024-01-15T00:45:35;13.90;;;7.70;;
78750;SDS011;68070;50.954;11.060;2024-01-15T00:48:00;12.30;;;6.00;;
78750;SDS011;68070;50.954;11.060;2024-01-15T00:50:26;15.90;;;9.00;;
78750;SDS011;68070;50.954;11.060;2024-01-15T00:52:51;10.80;;;6.40;;
78750;SDS011;68070;50.954;11.060;2024-01-15T00:55:16;14.30;;;6.70;;
78750;SDS011;68070;50.954;11.060;2024-01-15T00:57:42;11.60;;;6.60;;
78750;SDS011;68070;50.954;11.060;2024-01-15T01:00:07;15.00;;;7.30;;
78750;SDS011;68070;50.954;11.060;2024-01-15T01:02:34;13.30;;;7.00;;
78750;SDS011;68070;50.954;11.060;2024-01-15T01:04:59;15.90;;;7.90;;
78750;SDS011;68070;50.954;11.060;2024-01-15T01:07:25;14.70;;;8.00;;
78750;SDS011;68070;50.954;11.060;2024-01-15T01:09:50;11.30;;;6.70;;
78750;SDS011;68070;50.954;11.060;2024-01-15T01:12:16;14.00;;;7.30;;
78750;SDS011;68070;50.954;11.060;2024-01-15T01:14:41;13.40;;;7.20;;
78750;SDS011;68070;50.954;11.060;2024-01-15T01:17:06;13.10;;;6.90;;
78750;SDS011;68070;50.954;11.060;2024-01-15T01:19:33;15.10;;;6.90;;
78750;SDS011;68070;50.954;11.060;2024-01-15T01:21:58;14.00;;;7.40;;
78750;SDS011;68070;50.954;11.060;2024-01-15T01:24:23;12.60;;;7.10;;
78750;SDS011;68070;50.954;11.060;2024-01-15T01:26:48;11.40;;;6.20;;
78750;SDS011;68070;50.954;11.060;2024-01-15T01:31:42;13.20;;;6.30;;
78750;SDS011;68070;50.954;11.060;2024-01-15T01:34:08;13.80;;;8.20;;
78750;SDS011;68070;50.954;11.060;2024-01-15T01:36:33;12.90;;;6.80;;
78750;SDS011;68070;50.954;11.060;2024-01-15T01:38:58;15.10;;;6.80;;
78750;SDS011;68070;50.954;11.060;2024-01-15T01:41:23;21.40;;;7.80;;
78750;SDS011;68070;50.954;11.060;2024-01-15T01:46:14;9.80;;;6.00;;
78750;SDS011;68070;50.954;11.060;2024-01-15T01:48:40;12.50;;;7.00;;
78750;SDS011;68070;50.954;11.060;2024-01-15T01:51:05;13.40;;;7.10;;
78750;SDS011;68070;50.954;11.060;2024-01-15T01:53:31;8.70;;;5.10;;
78750;SDS011;68070;50.954;11.060;2024-01-15T01:55:57;13.50;;;6.30;;
78750;SDS011;68070;50.954;11.060;2024-01-15T01:58:22;15.60;;;7.10;;
78750;SDS011;68070;50.954;11.060;2024-01-15T02:00:47;14.50;;;8.20;;
78750;SDS011;68070;50.954;11.060;2024-01-15T02:03:14;13.20;;;7.60;;
78750;SDS011;68070;50.954;11.060;2024-01-15T02:08:05;11.90;;;7.20;;
78750;SDS011;68070;50.954;11.060;2024-01-15T02:10:30;13.10;;;6.60;;
78750;SDS011;68070;50.954;11.060;2024-01-15T02:12:55;9.30;;;5.60;;
78750;SDS011;68070;50.954;11.060;2024-01-15T02:15:20;13.20;;;6.40;;
78750;SDS011;68070;50.954;11.060;2024-01-15T02:18:02;12.00;;;5.90;;
78750;SDS011;68070;50.954;11.060;2024-01-15T02:20:28;11.10;;;5.60;;
78750;SDS011;68070;50.954;11.060;2024-01-15T02:22:53;16.00;;;8.70;;
78750;SDS011;68070;50.954;11.060;2024-01-15T02:25:19;14.20;;;6.80;;
78750;SDS011;68070;50.954;11.060;2024-01-15T02:27:44;12.40;;;7.20;;
78750;SDS011;68070;50.954;11.060;2024-01-15T02:30:10;13.80;;;7.30;;
78750;SDS011;68070;50.954;11.060;2024-01-15T02:32:36;15.10;;;7.10;;
78750;SDS011;68070;50.954;11.060;2024-01-15T02:35:01;14.10;;;6.80;;
78750;SDS011;68070;50.954;11.060;2024-01-15T02:37:27;14.40;;;7.30;;
78750;SDS011;68070;50.954;11.060;2024-01-15T02:39:53;13.90;;;6.80;;
78750;SDS011;68070;50.954;11.060;2024-01-15T02:42:18;12.10;;;5.60;;
78750;SDS011;68070;50.954;11.060;2024-01-15T02:44:43;10.90;;;5.80;;
78750;SDS011;68070;50.954;11.060;2024-01-15T02:47:08;14.00;;;6.30;;
78750;SDS011;68070;50.954;11.060;2024-01-15T02:49:33;9.80;;;5.50;;
78750;SDS011;68070;50.954;11.060;2024-01-15T02:51:59;11.00;;;6.20;;
78750;SDS011;68070;50.954;11.060;2024-01-15T02:54:24;12.90;;;6.30;;
78750;SDS011;68070;50.954;11.060;2024-01-15T02:56:49;12.60;;;6.10;;
78750;SDS011;68070;50.954;11.060;2024-01-15T02:59:14;12.60;;;6.20;;
78750;SDS011;68070;50.954;11.060;2024-01-15T03:01:39;15.10;;;7.60;;
78750;SDS011;68070;50.954;11.060;2024-01-15T03:04:04;11.10;;;6.80;;
78750;SDS011;68070;50.954;11.060;2024-01-15T03:06:30;10.70;;;5.90;;
78750;SDS011;68070;50.954;11.060;2024-01-15T03:08:55;10.20;;;5.10;;
78750;SDS011;68070;50.954;11.060;2024-01-15T03:11:20;12.80;;;5.90;;
78750;SDS011;68070;50.954;11.060;2024-01-15T03:13:45;12.20;;;6.00;;
78750;SDS011;68070;50.954;11.060;2024-01-15T03:16:10;10.30;;;5.50;;
78750;SDS011;68070;50.954;11.060;2024-01-15T03:21:07;12.10;;;6.20;;
78750;SDS011;68070;50.954;11.060;2024-01-15T03:23:32;9.20;;;5.50;;
78750;SDS011;68070;50.954;11.060;2024-01-15T03:25:57;11.00;;;6.40;;
78750;SDS011;68070;50.954;11.060;2024-01-15T03:28:23;13.50;;;6.00;;
78750;SDS011;68070;50.954;11.060;2024-01-15T03:30:48;10.00;;;5.20;;
78750;SDS011;68070;50.954;11.060;2024-01-15T03:33:13;9.90;;;5.50;;
78750;SDS011;68070;50.954;11.060;2024-01-15T03:35:38;11.00;;;5.90;;
78750;SDS011;68070;50.954;11.060;2024-01-15T03:38:03;11.50;;;6.30;;
78750;SDS011;68070;50.954;11.060;2024-01-15T03:40:29;11.20;;;6.40;;
78750;SDS011;68070;50.954;11.060;2024-01-15T03:42:54;11.40;;;6.90;;
78750;SDS011;68070;50.954;11.060;2024-01-15T03:45:19;13.80;;;6.50;;
78750;SDS011;68070;50.954;11.060;2024-01-15T03:47:44;10.20;;;5.40;;
78750;SDS011;68070;50.954;11.060;2024-01-15T03:50:10;13.70;;;6.40;;
78750;SDS011;68070;50.954;11.060;2024-01-15T03:52:35;9.90;;;5.80;;
78750;SDS011;68070;50.954;11.060;2024-01-15T03:55:00;10.00;;;6.00;;
78750;SDS011;68070;50.954;11.060;2024-01-15T03:57:25;11.70;;;5.50;;
78750;SDS011;68070;50.954;11.060;2024-01-15T03:59:50;10.70;;;6.00;;
78750;SDS011;68070;50.954;11.060;2024-01-15T04:02:16;9.80;;;5.60;;
78750;SDS011;68070;50.954;11.060;2024-01-15T04:04:42;8.10;;;5.60;;
78750;SDS011;68070;50.954;11.060;2024-01-15T04:07:07;10.40;;;5.60;;
78750;SDS011;68070;50.954;11.060;2024-01-15T04:09:33;8.60;;;5.10;;
78750;SDS011;68070;50.954;11.060;2024-01-15T04:11:58;7.50;;;4.90;;
78750;SDS011;68070;50.954;11.060;2024-01-15T04:14:23;7.70;;;4.30;;
78750;SDS011;68070;50.954;11.060;2024-01-15T04:16:49;9.40;;;4.70;;
78750;SDS011;68070;50.954;11.060;2024-01-15T04:19:14;10.00;;;5.40;;
78750;SDS011;68070;50.954;11.060;2024-01-15T04:21:39;9.50;;;4.90;;
78750;SDS011;68070;50.954;11.060;2024-01-15T04:24:04;10.70;;;4.90;;
78750;SDS011;68070;50.954;11.060;2024-01-15T04:26:30;9.40;;;4.90;;
78750;SDS011;68070;50.954;11.060;2024-01-15T04:28:55;9.50;;;5.40;;
78750;SDS011;68070;50.954;11.060;2024-01-15T04:31:23;6.40;;;3.40;;
78750;SDS011;68070;50.954;11.060;2024-01-15T04:33:48;8.70;;;5.20;;
78750;SDS011;68070;50.954;11.060;2024-01-15T04:36:14;7.60;;;4.60;;
78750;SDS011;68070;50.954;11.060;2024-01-15T04:38:39;6.90;;;4.10;;
78750;SDS011;68070;50.954;11.060;2024-01-15T04:41:04;11.30;;;5.80;;
78750;SDS011;68070;50.954;11.060;2024-01-15T04:43:29;9.20;;;5.40;;
78750;SDS011;68070;50.954;11.060;2024-01-15T04:45:55;8.30;;;4.50;;
78750;SDS011;68070;50.954;11.060;2024-01-15T04:48:20;7.60;;;4.10;;
78750;SDS011;68070;50.954;11.060;2024-01-15T04:50:45;7.70;;;4.40;;
78750;SDS011;68070;50.954;11.060;2024-01-15T04:53:11;8.40;;;4.40;;
78750;SDS011;68070;50.954;11.060;2024-01-15T04:55:36;9.10;;;4.80;;
78750;SDS011;68070;50.954;11.060;2024-01-15T04:58:01;8.60;;;4.50;;
78750;SDS011;68070;50.954;11.060;2024-01-15T05:00:27;8.20;;;4.90;;
78750;SDS011;68070;50.954;11.060;2024-01-15T05:02:52;9.10;;;5.50;;
78750;SDS011;68070;50.954;11.060;2024-01-15T05:05:17;10.10;;;5.70;;
78750;SDS011;68070;50.954;11.060;2024-01-15T05:07:42;8.30;;;4.60;;
78750;SDS011;68070;50.954;11.060;2024-01-15T05:10:08;11.50;;;4.70;;
78750;SDS011;68070;50.954;11.060;2024-01-15T05:14:58;9.00;;;4.70;;
78750;SDS011;68070;50.954;11.060;2024-01-15T05:17:23;7.90;;;4.60;;
78750;SDS011;68070;50.954;11.060;2024-01-15T05:19:49;7.30;;;4.20;;
78750;SDS011;68070;50.954;11.060;2024-01-15T05:22:14;9.30;;;4.80;;
78750;SDS011;68070;50.954;11.060;2024-01-15T05:24:40;9.40;;;5.80;;
78750;SDS011;68070;50.954;11.060;2024-01-15T05:27:05;10.50;;;5.50;;
78750;SDS011;68070;50.954;11.060;2024-01-15T05:29:30;10.70;;;5.50;;
78750;SDS011;68070;50.954;11.060;2024-01-15T05:31:56;10.60;;;5.30;;
78750;SDS011;68070;50.954;11.060;2024-01-15T05:34:23;9.30;;;5.50;;
78750;SDS011;68070;50.954;11.060;2024-01-15T05:36:48;13.50;;;4.80;;
78750;SDS011;68070;50.954;11.060;2024-01-15T05:39:13;9.60;;;4.60;;
78750;SDS011;68070;50.954;11.060;2024-01-15T05:41:39;8.90;;;5.60;;
78750;SDS011;68070;50.954;11.060;2024-01-15T05:44:04;9.10;;;4.70;;
78750;SDS011;68070;50.954;11.060;2024-01-15T05:46:29;9.90;;;5.70;;
78750;SDS011;68070;50.954;11.060;2024-01-15T05:48:54;11.20;;;6.20;;
78750;SDS011;68070;50.954;11.060;2024-01-15T05:51:19;10.90;;;6.10;;
78750;SDS011;68070;50.954;11.060;2024-01-15T05:53:45;9.00;;;4.80;;
78750;SDS011;68070;50.954;11.060;2024-01-15T05:56:10;7.20;;;4.60;;
78750;SDS011;68070;50.954;11.060;2024-01-15T06:01:01;7.20;;;4.30;;
78750;SDS011;68070;50.954;11.060;2024-01-15T06:03:26;12.40;;;4.70;;
78750;SDS011;68070;50.954;11.060;2024-01-15T06:05:52;7.70;;;4.50;;
78750;SDS011;68070;50.954;11.060;2024-01-15T06:08:17;7.60;;;4.30;;
78750;SDS011;68070;50.954;11.060;2024-01-15T06:10:44;9.60;;;4.70;;
78750;SDS011;68070;50.954;11.060;2024-01-15T06:13:09;10.60;;;5.20;;
78750;SDS011;68070;50.954;11.060;2024-01-15T06:15:34;8.40;;;4.70;;
78750;SDS011;68070;50.954;11.060;2024-01-15T06:17:59;9.30;;;4.60;;
78750;SDS011;68070;50.954;11.060;2024-01-15T06:20:24;7.90;;;4.50;;
78750;SDS011;68070;50.954;11.060;2024-01-15T06:22:49;9.00;;;5.20;;
78750;SDS011;68070;50.954;11.060;2024-01-15T06:25:15;9.10;;;5.00;;
78750;SDS011;68070;50.954;11.060;2024-01-15T06:27:40;6.90;;;4.30;;
78750;SDS011;68070;50.954;11.060;2024-01-15T06:30:05;9.70;;;5.00;;
78750;SDS011;68070;50.954;11.060;2024-01-15T06:32:31;7.20;;;5.30;;
78750;SDS011;68070;50.954;11.060;2024-01-15T06:34:56;10.00;;;4.40;;
78750;SDS011;68070;50.954;11.060;2024-01-15T06:37:21;9.00;;;4.20;;
78750;SDS011;68070;50.954;11.060;2024-01-15T06:39:47;9.50;;;4.80;;
78750;SDS011;68070;50.954;11.060;2024-01-15T06:42:12;10.10;;;4.70;;
78750;SDS011;68070;50.954;11.060;2024-01-15T06:44:37;8.80;;;4.40;;
78750;SDS011;68070;50.954;11.060;2024-01-15T06:47:03;8.40;;;4.90;;
78750;SDS011;68070;50.954;11.060;2024-01-15T06:49:29;10.80;;;5.80;;
78750;SDS011;68070;50.954;11.060;2024-01-15T06:51:54;9.10;;;4.70;;
78750;SDS011;68070;50.954;11.060;2024-01-15T06:54:20;7.00;;;4.00;;
78750;SDS011;68070;50.954;11.060;2024-01-15T06:59:10;7.70;;;4.30;;
78750;SDS011;68070;50.954;11.060;2024-01-15T07:01:35;6.30;;;3.90;;
78750;SDS011;68070;50.954;11.060;2024-01-15T07:04:01;7.30;;;4.40;;
78750;SDS011;68070;50.954;11.060;2024-01-15T07:06:26;7.40;;;4.00;;
78750;SDS011;68070;50.954;11.060;2024-01-15T07:08:51;12.50;;;5.80;;
78750;SDS011;68070;50.954;11.060;2024-01-15T07:11:16;8.70;;;5.50;;
78750;SDS011;68070;50.954;11.060;2024-01-15T07:13:41;8.70;;;4.30;;
78750;SDS011;68070;50.954;11.060;2024-01-15T07:16:06;9.40;;;3.50;;
78750;SDS011;68070;50.954;11.060;2024-01-15T07:20:57;9.10;;;4.30;;
78750;SDS011;68070;50.954;11.060;2024-01-15T07:23:23;8.00;;;4.90;;
78750;SDS011;68070;50.954;11.060;2024-01-15T07:25:48;7.70;;;4.00;;
78750;SDS011;68070;50.954;11.060;2024-01-15T07:28:14;9.80;;;5.00;;
78750;SDS011;68070;50.954;11.060;2024-01-15T07:30:39;9.20;;;5.00;;
78750;SDS011;68070;50.954;11.060;2024-01-15T07:33:04;8.20;;;4.40;;
78750;SDS011;68070;50.954;11.060;2024-01-15T07:35:30;8.50;;;4.30;;
78750;SDS011;68070;50.954;11.060;2024-01-15T07:37:55;9.60;;;5.10;;
78750;SDS011;68070;50.954;11.060;2024-01-15T07:40:21;9.50;;;5.30;;
78750;SDS011;68070;50.954;11.060;2024-01-15T07:42:46;8.80;;;4.70;;
78750;SDS011;68070;50.954;11.060;2024-01-15T07:45:12;7.60;;;4.50;;
78750;SDS011;68070;50.954;11.060;2024-01-15T07:47:38;8.60;;;4.10;;
78750;SDS011;68070;50.954;11.060;2024-01-15T07:50:03;10.40;;;4.60;;
78750;SDS011;68070;50.954;11.060;2024-01-15T07:52:29;12.50;;;5.30;;
78750;SDS011;68070;50.954;11.060;2024-01-15T07:54:56;12.80;;;5.30;;
78750;SDS011;68070;50.954;11.060;2024-01-15T07:57:21;9.70;;;5.00;;
78750;SDS011;68070;50.954;11.060;2024-01-15T07:59:46;9.50;;;4.40;;
78750;SDS011;68070;50.954;11.060;2024-01-15T08:02:11;7.20;;;4.30;;
78750;SDS011;68070;50.954;11.060;2024-01-15T08:04:37;9.50;;;5.00;;
78750;SDS011;68070;50.954;11.060;2024-01-15T08:07:04;14.60;;;5.30;;
78750;SDS011;68070;50.954;11.060;2024-01-15T08:11:54;6.70;;;5.00;;
78750;SDS011;68070;50.954;11.060;2024-01-15T08:14:19;8.20;;;4.50;;
78750;SDS011;68070;50.954;11.060;2024-01-15T08:16:45;10.70;;;4.90;;
78750;SDS011;68070;50.954;11.060;2024-01-15T08:19:10;9.80;;;5.20;;
78750;SDS011;68070;50.954;11.060;2024-01-15T08:21:35;11.00;;;4.90;;
78750;SDS011;68070;50.954;11.060;2024-01-15T08:24:01;12.60;;;4.70;;
78750;SDS011;68070;50.954;11.060;2024-01-15T08:26:27;10.00;;;4.30;;
78750;SDS011;68070;50.954;11.060;2024-01-15T08:28:53;11.30;;;4.60;;
78750;SDS011;68070;50.954;11.060;2024-01-15T08:31:18;10.10;;;4.70;;
78750;SDS011;68070;50.954;11.060;2024-01-15T08:33:43;11.50;;;4.40;;
78750;SDS011;68070;50.954;11.060;2024-01-15T08:36:14;9.70;;;4.30;;
78750;SDS011;68070;50.954;11.060;2024-01-15T08:38:39;11.70;;;5.80;;
78750;SDS011;68070;50.954;11.060;2024-01-15T08:41:04;9.40;;;5.60;;
78750;SDS011;68070;50.954;11.060;2024-01-15T08:43:29;7.40;;;4.30;;
78750;SDS011;68070;50.954;11.060;2024-01-15T08:45:56;11.60;;;4.50;;
78750;SDS011;68070;50.954;11.060;2024-01-15T08:48:21;9.60;;;4.70;;
78750;SDS011;68070;50.954;11.060;2024-01-15T08:50:47;9.30;;;4.40;;
78750;SDS011;68070;50.954;11.060;2024-01-15T08:53:12;13.60;;;4.80;;
78750;SDS011;68070;50.954;11.060;2024-01-15T08:58:02;7.70;;;4.70;;
78750;SDS011;68070;50.954;11.060;2024-01-15T09:00:28;9.10;;;4.70;;
78750;SDS011;68070;50.954;11.060;2024-01-15T09:02:53;8.00;;;4.40;;
78750;SDS011;68070;50.954;11.060;2024-01-15T09:05:19;9.00;;;4.90;;
78750;SDS011;68070;50.954;11.060;2024-01-15T09:07:45;6.70;;;3.90;;
78750;SDS011;68070;50.954;11.060;2024-01-15T09:10:11;8.90;;;4.60;;
78750;SDS011;68070;50.954;11.060;2024-01-15T09:12:36;7.50;;;4.80;;
78750;SDS011;68070;50.954;11.060;2024-01-15T09:15:01;8.40;;;4.40;;
78750;SDS011;68070;50.954;11.060;2024-01-15T09:17:29;8.00;;;4.60;;
78750;SDS011;68070;50.954;11.060;2024-01-15T09:22:20;5.80;;;3.90;;
78750;SDS011;68070;50.954;11.060;2024-01-15T09:24:45;7.60;;;4.80;;
78750;SDS011;68070;50.954;11.060;2024-01-15T09:27:11;9.80;;;5.30;;
78750;SDS011;68070;50.954;11.060;2024-01-15T09:32:07;9.10;;;5.00;;
78750;SDS011;68070;50.954;11.060;2024-01-15T09:34:33;12.30;;;6.00;;
78750;SDS011;68070;50.954;11.060;2024-01-15T09:36:58;8.70;;;4.30;;
78750;SDS011;68070;50.954;11.060;2024-01-15T09:39:25;9.70;;;4.60;;
78750;SDS011;68070;50.954;11.060;2024-01-15T09:41:51;10.10;;;5.80;;
78750;SDS011;68070;50.954;11.060;2024-01-15T09:44:17;10.10;;;5.20;;
78750;SDS011;68070;50.954;11.060;2024-01-15T09:46:42;9.60;;;6.30;;
78750;SDS011;68070;50.954;11.060;2024-01-15T09:49:09;12.20;;;4.70;;
78750;SDS011;68070;50.954;11.060;2024-01-15T09:51:35;9.10;;;5.00;;
78750;SDS011;68070;50.954;11.060;2024-01-15T09:54:01;9.60;;;5.40;;
78750;SDS011;68070;50.954;11.060;2024-01-15T09:56:27;11.10;;;6.70;;
78750;SDS011;68070;50.954;11.060;2024-01-15T10:01:17;8.20;;;4.70;;
78750;SDS011;68070;50.954;11.060;2024-01-15T10:03:44;8.60;;;4.60;;
78750;SDS011;68070;50.954;11.060;2024-01-15T10:08:36;9.20;;;5.40;;
78750;SDS011;68070;50.954;11.060;2024-01-15T10:11:02;10.00;;;5.00;;
78750;SDS011;68070;50.954;11.060;2024-01-15T10:13:29;8.70;;;4.80;;
78750;SDS011;68070;50.954;11.060;2024-01-15T10:15:55;11.00;;;5.20;;
78750;SDS011;68070;50.954;11.060;2024-01-15T10:18:20;12.20;;;5.70;;
78750;SDS011;68070;50.954;11.060;2024-01-15T10:20:45;12.30;;;5.70;;
78750;SDS011;68070;50.954;11.060;2024-01-15T10:23:12;9.40;;;5.10;;
78750;SDS011;68070;50.954;11.060;2024-01-15T10:28:03;9.10;;;5.10;;
78750;SDS011;68070;50.954;11.060;2024-01-15T10:30:28;7.90;;;4.90;;
78750;SDS011;68070;50.954;11.060;2024-01-15T10:32:57;9.30;;;5.70;;
78750;SDS011;68070;50.954;11.060;2024-01-15T10:35:23;10.00;;;5.10;;
78750;SDS011;68070;50.954;11.060;2024-01-15T10:37:51;8.70;;;5.40;;
78750;SDS011;68070;50.954;11.060;2024-01-15T10:40:17;11.10;;;5.10;;
78750;SDS011;68070;50.954;11.060;2024-01-15T10:42:43;10.80;;;5.10;;
78750;SDS011;68070;50.954;11.060;2024-01-15T10:45:08;9.10;;;4.90;;
78750;SDS011;68070;50.954;11.060;2024-01-15T10:47:34;7.90;;;4.70;;
78750;SDS011;68070;50.954;11.060;2024-01-15T10:49:59;9.60;;;4.80;;
78750;SDS011;68070;50.954;11.060;2024-01-15T10:52:25;8.80;;;4.80;;
78750;SDS011;68070;50.954;11.060;2024-01-15T10:54:50;9.20;;;4.30;;
78750;SDS011;68070;50.954;11.060;2024-01-15T10:57:16;8.50;;;4.70;;
78750;SDS011;68070;50.954;11.060;2024-01-15T10:59:41;6.70;;;4.40;;
78750;SDS011;68070;50.954;11.060;2024-01-15T11:02:06;7.00;;;3.60;;
78750;SDS011;68070;50.954;11.060;2024-01-15T11:06:57;6.80;;;3.40;;
78750;SDS011;68070;50.954;11.060;2024-01-15T11:11:47;8.10;;;3.70;;
78750;SDS011;68070;50.954;11.060;2024-01-15T11:17:00;8.70;;;4.20;;
78750;SDS011;68070;50.954;11.060;2024-01-15T11:19:27;8.30;;;4.00;;
78750;SDS011;68070;50.954;11.060;2024-01-15T11:22:00;6.40;;;3.70;;
78750;SDS011;68070;50.954;11.060;2024-01-15T11:24:38;9.70;;;4.10;;
78750;SDS011;68070;50.954;11.060;2024-01-15T11:27:03;6.20;;;3.30;;
78750;SDS011;68070;50.954;11.060;2024-01-15T11:29:33;6.80;;;3.60;;
78750;SDS011;68070;50.954;11.060;2024-01-15T11:32:03;6.40;;;3.80;;
78750;SDS011;68070;50.954;11.060;2024-01-15T11:37:16;9.70;;;4.70;;
78750;SDS011;68070;50.954;11.060;2024-01-15T11:39:41;6.90;;;3.90;;
78750;SDS011;68070;50.954;11.060;2024-01-15T11:42:07;9.40;;;3.60;;
78750;SDS011;68070;50.954;11.060;2024-01-15T11:44:33;8.80;;;4.30;;
78750;SDS011;68070;50.954;11.060;2024-01-15T11:46:59;7.10;;;3.50;;
78750;SDS011;68070;50.954;11.060;2024-01-15T11:52:03;5.00;;;2.50;;
78750;SDS011;68070;50.954;11.060;2024-01-15T11:54:29;6.00;;;3.40;;
78750;SDS011;68070;50.954;11.060;2024-01-15T11:56:58;5.50;;;3.60;;
78750;SDS011;68070;50.954;11.060;2024-01-15T11:59:24;6.10;;;3.20;;
78750;SDS011;68070;50.954;11.060;2024-01-15T12:01:50;5.80;;;3.20;;
78750;SDS011;68070;50.954;11.060;2024-01-15T12:04:15;5.90;;;3.70;;
78750;SDS011;68070;50.954;11.060;2024-01-15T12:06:42;6.50;;;3.60;;
78750;SDS011;68070;50.954;11.060;2024-01-15T12:09:08;7.00;;;3.90;;
78750;SDS011;68070;50.954;11.060;2024-01-15T12:11:34;6.00;;;3.10;;
78750;SDS011;68070;50.954;11.060;2024-01-15T12:14:01;5.70;;;3.20;;
78750;SDS011;68070;50.954;11.060;2024-01-15T12:16:26;4.90;;;3.00;;
78750;SDS011;68070;50.954;11.060;2024-01-15T12:18:52;5.40;;;3.20;;
78750;SDS011;68070;50.954;11.060;2024-01-15T12:21:17;7.30;;;3.60;;
78750;SDS011;68070;50.954;11.060;2024-01-15T12:23:45;6.20;;;3.40;;
78750;SDS011;68070;50.954;11.060;2024-01-15T12:26:11;5.90;;;3.90;;
78750;SDS011;68070;50.954;11.060;2024-01-15T12:31:02;6.00;;;3.30;;
78750;SDS011;68070;50.954;11.060;2024-01-15T12:33:30;6.10;;;3.10;;
78750;SDS011;68070;50.954;11.060;2024-01-15T12:35:55;5.50;;;4.00;;
78750;SDS011;68070;50.954;11.060;2024-01-15T12:38:20;5.90;;;3.50;;
78750;SDS011;68070;50.954;11.060;2024-01-15T12:40:46;6.30;;;3.60;;
78750;SDS011;68070;50.954;11.060;2024-01-15T12:43:11;6.30;;;3.80;;
78750;SDS011;68070;50.954;11.060;2024-01-15T12:45:37;8.10;;;4.10;;
78750;SDS011;68070;50.954;11.060;2024-01-15T12:48:05;6.10;;;3.80;;
78750;SDS011;68070;50.954;11.060;2024-01-15T12:50:31;6.20;;;3.70;;
78750;SDS011;68070;50.954;11.060;2024-01-15T12:52:58;7.00;;;3.90;;
78750;SDS011;68070;50.954;11.060;2024-01-15T12:55:24;6.40;;;3.50;;
78750;SDS011;68070;50.954;11.060;2024-01-15T13:00:17;7.40;;;3.60;;
78750;SDS011;68070;50.954;11.060;2024-01-15T13:02:42;6.70;;;4.20;;
78750;SDS011;68070;50.954;11.060;2024-01-15T13:05:08;5.20;;;3.40;;
78750;SDS011;68070;50.954;11.060;2024-01-15T13:07:34;5.40;;;3.70;;
78750;SDS011;68070;50.954;11.060;2024-01-15T13:09:59;6.10;;;3.70;;
78750;SDS011;68070;50.954;11.060;2024-01-15T13:14:49;7.80;;;3.90;;
78750;SDS011;68070;50.954;11.060;2024-01-15T13:17:14;6.10;;;4.20;;
78750;SDS011;68070;50.954;11.060;2024-01-15T13:19:40;8.00;;;3.40;;
78750;SDS011;68070;50.954;11.060;2024-01-15T13:24:33;6.60;;;3.70;;
78750;SDS011;68070;50.954;11.060;2024-01-15T13:26:58;5.90;;;4.00;;
78750;SDS011;68070;50.954;11.060;2024-01-15T13:29:23;8.30;;;4.30;;
78750;SDS011;68070;50.954;11.060;2024-01-15T13:31:48;6.60;;;4.40;;
78750;SDS011;68070;50.954;11.060;2024-01-15T13:36:39;5.90;;;3.20;;
78750;SDS011;68070;50.954;11.060;2024-01-15T13:39:04;8.50;;;4.40;;
78750;SDS011;68070;50.954;11.060;2024-01-15T13:41:33;7.80;;;4.50;;
78750;SDS011;68070;50.954;11.060;2024-01-15T13:43:58;7.60;;;4.20;;
78750;SDS011;68070;50.954;11.060;2024-01-15T13:46:25;6.00;;;4.20;;
78750;SDS011;68070;50.954;11.060;2024-01-15T13:48:54;5.80;;;3.70;;
78750;SDS011;68070;50.954;11.060;2024-01-15T13:51:23;6.30;;;3.50;;
78750;SDS011;68070;50.954;11.060;2024-01-15T13:53:49;6.00;;;3.90;;
78750;SDS011;68070;50.954;11.060;2024-01-15T13:56:14;6.70;;;4.00;;
78750;SDS011;68070;50.954;11.060;2024-01-15T13:58:40;5.60;;;3.50;;
78750;SDS011;68070;50.954;11.060;2024-01-15T14:01:05;7.20;;;4.10;;
78750;SDS011;68070;50.954;11.060;2024-01-15T14:05:56;6.50;;;3.90;;
78750;SDS011;68070;50.954;11.060;2024-01-15T14:08:21;8.40;;;5.10;;
78750;SDS011;68070;50.954;11.060;2024-01-15T14:10:46;7.90;;;4.10;;
78750;SDS011;68070;50.954;11.060;2024-01-15T14:13:11;7.60;;;4.60;;
78750;SDS011;68070;50.954;11.060;2024-01-15T14:15:37;6.90;;;3.70;;
78750;SDS011;68070;50.954;11.060;2024-01-15T14:18:02;7.90;;;4.20;;
78750;SDS011;68070;50.954;11.060;2024-01-15T14:20:27;6.50;;;4.20;;
78750;SDS011;68070;50.954;11.060;2024-01-15T14:22:53;8.50;;;3.60;;
78750;SDS011;68070;50.954;11.060;2024-01-15T14:25:19;6.00;;;3.70;;
78750;SDS011;68070;50.954;11.060;2024-01-15T14:27:44;5.80;;;3.10;;
78750;SDS011;68070;50.954;11.060;2024-01-15T14:30:10;6.20;;;3.40;;
78750;SDS011;68070;50.954;11.060;2024-01-15T14:32:38;7.20;;;4.20;;
78750;SDS011;68070;50.954;11.060;2024-01-15T14:35:03;7.30;;;4.50;;
78750;SDS011;68070;50.954;11.060;2024-01-15T14:37:30;7.80;;;4.60;;
78750;SDS011;68070;50.954;11.060;2024-01-15T14:39:56;5.10;;;3.20;;
78750;SDS011;68070;50.954;11.060;2024-01-15T14:42:21;11.00;;;5.30;;
78750;SDS011;68070;50.954;11.060;2024-01-15T14:44:47;6.20;;;3.50;;
78750;SDS011;68070;50.954;11.060;2024-01-15T14:47:12;7.60;;;4.50;;
78750;SDS011;68070;50.954;11.060;2024-01-15T14:49:37;8.20;;;4.90;;
78750;SDS011;68070;50.954;11.060;2024-01-15T14:52:02;5.80;;;4.00;;
78750;SDS011;68070;50.954;11.060;2024-01-15T14:54:28;5.40;;;3.40;;
78750;SDS011;68070;50.954;11.060;2024-01-15T14:56:53;10.00;;;4.50;;
78750;SDS011;68070;50.954;11.060;2024-01-15T14:59:18;6.70;;;3.60;;
78750;SDS011;68070;50.954;11.060;2024-01-15T15:01:43;6.80;;;3.60;;
78750;SDS011;68070;50.954;11.060;2024-01-15T15:04:08;9.00;;;3.90;;
78750;SDS011;68070;50.954;11.060;2024-01-15T15:06:36;7.80;;;4.10;;
78750;SDS011;68070;50.954;11.060;2024-01-15T15:09:02;9.00;;;5.20;;
78750;SDS011;68070;50.954;11.060;2024-01-15T15:11:27;9.00;;;5.10;;
78750;SDS011;68070;50.954;11.060;2024-01-15T15:13:53;8.80;;;4.00;;
78750;SDS011;68070;50.954;11.060;2024-01-15T15:16:18;6.80;;;3.70;;
78750;SDS011;68070;50.954;11.060;2024-01-15T15:18:43;11.10;;;5.20;;
78750;SDS011;68070;50.954;11.060;2024-01-15T15:21:11;5.90;;;3.70;;
78750;SDS011;68070;50.954;11.060;2024-01-15T15:23:37;10.40;;;5.60;;
78750;SDS011;68070;50.954;11.060;2024-01-15T15:26:04;5.50;;;3.20;;
78750;SDS011;68070;50.954;11.060;2024-01-15T15:28:29;9.00;;;4.20;;